createdAt,value
2022-08-10T00:00:23.562Z,17.90
2022-08-10T00:01:20.386Z,17.89
2022-08-10T00:02:17.286Z,17.91
2022-08-10T00:03:14.126Z,17.91
2022-08-10T00:04:10.930Z,17.90
2022-08-10T00:05:18.147Z,17.87
2022-08-10T00:06:14.979Z,17.86
2022-08-10T00:07:11.803Z,17.84
2022-08-10T00:08:08.594Z,17.84
2022-08-10T00:09:05.496Z,17.88
2022-08-10T00:10:02.508Z,17.90
2022-08-10T00:10:59.306Z,17.89
2022-08-10T00:11:58.689Z,17.94
2022-08-10T00:12:55.737Z,17.92
2022-08-10T00:13:52.834Z,17.91
2022-08-10T00:14:49.626Z,17.90
2022-08-10T00:15:53.398Z,17.90
2022-08-10T00:16:51.241Z,17.86
2022-08-10T00:23:34.698Z,17.72
2022-08-10T00:24:31.543Z,17.75
2022-08-10T00:25:28.455Z,17.74
2022-08-10T00:26:25.233Z,17.73
2022-08-10T00:28:02.872Z,17.72
2022-08-10T00:28:40.372Z,17.67
2022-08-10T00:29:37.243Z,17.65
2022-08-10T00:30:34.268Z,17.67
2022-08-10T00:31:31.035Z,17.68
2022-08-10T00:32:47.871Z,17.69
2022-08-10T00:33:44.607Z,17.69
2022-08-10T00:34:41.383Z,17.68
2022-08-10T00:35:38.094Z,17.65
2022-08-10T00:36:34.925Z,17.57
2022-08-10T00:37:31.762Z,17.59
2022-08-10T00:38:28.552Z,17.56
2022-08-10T00:39:26.147Z,17.53
2022-08-10T00:40:36.868Z,17.52
2022-08-10T00:41:34.752Z,17.48
2022-08-10T00:42:31.721Z,17.45
2022-08-10T00:43:28.524Z,17.42
2022-08-10T00:44:25.294Z,17.41
2022-08-10T00:45:22.112Z,17.41
2022-08-10T00:46:18.884Z,17.38
2022-08-10T00:47:37.199Z,17.36
2022-08-10T00:53:03.815Z,17.32
2022-08-10T00:54:00.867Z,17.30
2022-08-10T00:54:58.113Z,17.29
2022-08-10T00:57:15.843Z,17.23
2022-08-10T00:57:16.969Z,17.26
2022-08-10T00:58:15.071Z,17.20
2022-08-10T00:59:11.965Z,17.15
2022-08-10T01:00:09.591Z,17.15
2022-08-10T01:01:06.439Z,17.14
2022-08-10T01:02:11.621Z,17.13
2022-08-10T01:03:09.288Z,17.12
2022-08-10T01:04:58.919Z,17.12
2022-08-10T01:05:24.599Z,17.10
2022-08-10T01:06:45.836Z,17.10
2022-08-10T01:08:19.807Z,17.11
2022-08-10T01:09:24.007Z,17.08
2022-08-10T01:10:25.598Z,17.09
2022-08-10T01:12:47.623Z,17.09
2022-08-10T01:13:17.505Z,17.07
2022-08-10T01:14:50.608Z,17.06
2022-08-10T01:16:01.539Z,17.06
2022-08-10T01:17:03.481Z,17.08
2022-08-10T01:24:02.557Z,17.03
2022-08-10T01:25:18.113Z,17.00
2022-08-10T01:26:51.797Z,17.01
2022-08-10T01:27:55.204Z,16.95
2022-08-10T01:29:21.732Z,16.91
2022-08-10T01:30:19.985Z,16.86
2022-08-10T01:31:20.449Z,16.83
2022-08-10T01:32:19.735Z,16.78
2022-08-10T01:33:58.077Z,16.76
2022-08-10T01:34:59.846Z,16.71
2022-08-10T01:35:59.699Z,16.69
2022-08-10T01:37:01.135Z,16.68
2022-08-10T01:38:09.209Z,16.63
2022-08-10T01:39:06.040Z,16.59
2022-08-10T01:40:03.162Z,16.60
2022-08-10T01:41:12.024Z,16.55
2022-08-10T01:42:08.817Z,16.56
2022-08-10T01:43:08.670Z,16.51
2022-08-10T01:44:13.991Z,16.51
2022-08-10T01:45:10.916Z,16.48
2022-08-10T01:46:07.689Z,16.42
2022-08-10T01:54:03.181Z,16.14
2022-08-10T01:55:00.104Z,16.06
2022-08-10T01:55:56.829Z,16.01
2022-08-10T01:56:56.237Z,15.98
2022-08-10T01:57:53.006Z,15.94
2022-08-10T01:58:51.489Z,15.91
2022-08-10T01:59:54.540Z,15.89
2022-08-10T02:00:57.559Z,15.86
2022-08-10T02:01:56.285Z,15.85
2022-08-10T02:02:53.183Z,15.83
2022-08-10T02:04:04.636Z,15.80
2022-08-10T02:05:03.186Z,15.75
2022-08-10T02:05:59.929Z,15.73
2022-08-10T02:06:56.799Z,15.71
2022-08-10T02:07:54.548Z,15.70
2022-08-10T02:09:05.735Z,15.70
2022-08-10T02:10:05.911Z,15.66
2022-08-10T02:11:02.985Z,15.66
2022-08-10T02:12:07.144Z,15.63
2022-08-10T02:13:05.269Z,15.62
2022-08-10T02:14:02.105Z,15.62
2022-08-10T02:15:03.895Z,15.60
2022-08-10T02:16:02.427Z,15.57
2022-08-10T02:16:59.374Z,15.57
2022-08-10T02:23:42.413Z,15.44
2022-08-10T02:24:39.827Z,15.40
2022-08-10T02:25:40.706Z,15.38
2022-08-10T02:26:42.160Z,15.33
2022-08-10T02:27:38.921Z,15.32
2022-08-10T02:28:36.036Z,15.29
2022-08-10T02:29:32.940Z,15.28
2022-08-10T02:30:29.899Z,15.27
2022-08-10T02:31:26.735Z,15.30
2022-08-10T02:32:36.373Z,15.30
2022-08-10T02:33:37.186Z,15.32
2022-08-10T02:34:34.920Z,15.32
2022-08-10T02:35:42.117Z,15.33
2022-08-10T02:36:50.511Z,15.31
2022-08-10T02:37:48.271Z,15.31
2022-08-10T02:38:58.712Z,15.29
2022-08-10T02:39:57.168Z,15.30
2022-08-10T02:45:09.037Z,15.28
2022-08-10T02:45:20.244Z,15.19
2022-08-10T02:45:22.918Z,15.22
2022-08-10T02:45:32.529Z,15.16
2022-08-10T02:46:40.661Z,15.11
2022-08-10T02:53:57.352Z,14.91
2022-08-10T02:54:59.246Z,14.89
2022-08-10T02:56:08.332Z,14.85
2022-08-10T02:57:09.558Z,14.84
2022-08-10T02:58:15.334Z,14.83
2022-08-10T02:59:17.560Z,14.80
2022-08-10T03:00:14.987Z,14.80
2022-08-10T03:01:17.434Z,14.79
2022-08-10T03:02:16.671Z,14.79
2022-08-10T03:03:18.962Z,14.79
2022-08-10T03:04:21.120Z,14.79
2022-08-10T03:05:37.895Z,14.86
2022-08-10T03:06:39.467Z,14.92
2022-08-10T03:07:47.486Z,14.93
2022-08-10T03:08:44.525Z,14.94
2022-08-10T03:09:41.544Z,14.95
2022-08-10T03:10:39.888Z,14.95
2022-08-10T03:12:36.363Z,14.96
2022-08-10T03:12:56.531Z,14.92
2022-08-10T03:13:59.960Z,14.92
2022-08-10T03:14:56.913Z,14.91
2022-08-10T03:15:53.612Z,14.92
2022-08-10T03:16:50.518Z,14.93
2022-08-10T03:23:47.560Z,14.84
2022-08-10T03:24:44.607Z,14.82
2022-08-10T03:25:53.833Z,14.74
2022-08-10T03:26:52.791Z,14.76
2022-08-10T03:27:49.714Z,14.75
2022-08-10T03:28:46.445Z,14.72
2022-08-10T03:30:28.157Z,14.71
2022-08-10T03:31:00.353Z,14.68
2022-08-10T03:31:57.104Z,14.68
2022-08-10T03:32:53.909Z,14.68
2022-08-10T03:33:50.710Z,14.67
2022-08-10T03:34:47.526Z,14.65
2022-08-10T03:35:44.274Z,14.63
2022-08-10T03:37:01.143Z,14.60
2022-08-10T03:37:59.844Z,14.59
2022-08-10T03:38:56.865Z,14.57
2022-08-10T03:39:54.825Z,14.57
2022-08-10T03:40:51.586Z,14.56
2022-08-10T03:41:55.780Z,14.55
2022-08-10T03:42:52.702Z,14.54
2022-08-10T03:43:49.684Z,14.52
2022-08-10T03:44:50.385Z,14.51
2022-08-10T03:45:55.684Z,14.49
2022-08-10T03:46:53.173Z,14.49
2022-08-10T03:54:06.231Z,14.49
2022-08-10T03:55:04.365Z,14.46
2022-08-10T03:56:30.499Z,14.44
2022-08-10T03:57:18.638Z,14.43
2022-08-10T03:58:15.442Z,14.41
2022-08-10T03:59:13.423Z,14.40
2022-08-10T04:00:11.050Z,14.39
2022-08-10T04:01:09.524Z,14.40
2022-08-10T04:02:43.557Z,14.39
2022-08-10T04:03:23.292Z,14.37
2022-08-10T04:04:26.335Z,14.34
2022-08-10T04:05:23.103Z,14.33
2022-08-10T04:06:34.774Z,14.32
2022-08-10T04:07:31.586Z,14.32
2022-08-10T04:08:28.615Z,14.33
2022-08-10T04:09:54.045Z,14.31
2022-08-10T04:10:49.586Z,14.31
2022-08-10T04:11:46.301Z,14.28
2022-08-10T04:12:43.057Z,14.31
2022-08-10T04:13:39.836Z,14.29
2022-08-10T04:14:47.440Z,14.28
2022-08-10T04:15:48.540Z,14.27
2022-08-10T04:16:45.321Z,14.26
2022-08-10T04:23:33.938Z,14.30
2022-08-10T04:24:33.179Z,14.37
2022-08-10T04:25:30.132Z,14.39
2022-08-10T04:26:26.844Z,14.41
2022-08-10T04:27:23.561Z,14.42
2022-08-10T04:28:20.355Z,14.44
2022-08-10T04:29:17.163Z,14.44
2022-08-10T04:30:15.702Z,14.44
2022-08-10T04:31:12.965Z,14.46
2022-08-10T04:32:10.699Z,14.46
2022-08-10T04:33:08.228Z,14.49
2022-08-10T04:34:08.911Z,14.52
2022-08-10T04:35:06.209Z,14.55
2022-08-10T04:36:03.623Z,14.56
2022-08-10T04:37:05.492Z,14.59
2022-08-10T04:38:05.509Z,14.60
2022-08-10T04:39:02.360Z,14.64
2022-08-10T04:39:59.273Z,14.66
2022-08-10T04:40:56.873Z,14.68
2022-08-10T04:41:53.679Z,14.72
2022-08-10T04:42:50.404Z,14.74
2022-08-10T04:43:47.344Z,14.78
2022-08-10T04:44:44.074Z,14.79
2022-08-10T04:45:47.527Z,14.82
2022-08-10T04:46:57.414Z,14.83
2022-08-10T04:53:34.395Z,14.91
2022-08-10T04:54:51.020Z,14.94
2022-08-10T04:55:47.925Z,14.97
2022-08-10T04:56:44.601Z,15.01
2022-08-10T04:57:41.313Z,15.04
2022-08-10T04:58:38.097Z,15.04
2022-08-10T04:59:34.894Z,15.07
2022-08-10T05:00:31.706Z,15.07
2022-08-10T05:02:29.183Z,15.07
2022-08-10T05:02:46.708Z,15.07
2022-08-10T05:04:35.897Z,15.08
2022-08-10T05:05:00.398Z,15.11
2022-08-10T05:05:57.111Z,15.16
2022-08-10T05:06:58.284Z,15.20
2022-08-10T05:07:56.911Z,15.23
2022-08-10T05:08:53.870Z,15.25
2022-08-10T05:10:04.971Z,15.31
2022-08-10T05:11:03.390Z,15.40
2022-08-10T05:12:00.087Z,15.38
2022-08-10T05:12:56.830Z,15.42
2022-08-10T05:13:53.723Z,15.44
2022-08-10T05:14:52.181Z,15.49
2022-08-10T05:15:52.106Z,15.52
2022-08-10T05:16:48.972Z,15.58
2022-08-10T05:23:45.481Z,15.96
2022-08-10T05:24:42.693Z,16.01
2022-08-10T05:25:39.652Z,16.10
2022-08-10T05:26:40.568Z,16.19
2022-08-10T05:27:56.520Z,16.30
2022-08-10T05:28:56.347Z,16.36
2022-08-10T05:30:02.116Z,16.40
2022-08-10T05:31:00.229Z,16.46
2022-08-10T05:31:57.061Z,16.53
2022-08-10T05:32:58.269Z,16.61
2022-08-10T05:33:56.219Z,16.65
2022-08-10T05:34:53.031Z,16.73
2022-08-10T05:35:56.784Z,16.79
2022-08-10T05:36:57.741Z,16.85
2022-08-10T05:38:11.418Z,16.88
2022-08-10T05:39:11.108Z,16.96
2022-08-10T05:40:08.559Z,17.07
2022-08-10T05:41:05.765Z,17.15
2022-08-10T05:42:02.712Z,17.18
2022-08-10T05:42:59.603Z,17.30
2022-08-10T05:43:56.951Z,17.37
2022-08-10T05:44:53.923Z,17.46
2022-08-10T05:46:19.509Z,17.50
2022-08-10T05:47:12.565Z,17.56
2022-08-10T06:14:18.511Z,18.77
2022-08-10T06:15:21.622Z,18.84
2022-08-10T06:26:08.406Z,19.30
2022-08-10T06:26:59.509Z,19.31
2022-08-10T06:27:56.732Z,19.35
2022-08-10T06:29:03.801Z,19.37
2022-08-10T06:30:01.390Z,19.41
2022-08-10T06:30:58.178Z,19.46
2022-08-10T06:31:58.337Z,19.51
2022-08-10T06:32:56.756Z,19.60
2022-08-10T06:33:53.457Z,19.69
2022-08-10T06:34:50.604Z,19.76
2022-08-10T06:35:47.866Z,19.81
2022-08-10T06:36:44.809Z,19.88
2022-08-10T06:37:50.759Z,19.94
2022-08-10T06:38:48.689Z,19.98
2022-08-10T06:39:45.533Z,20.03
2022-08-10T06:40:47.540Z,20.09
2022-08-10T06:41:58.043Z,20.14
2022-08-10T06:43:06.782Z,20.23
2022-08-10T06:44:08.636Z,20.27
2022-08-10T06:45:14.140Z,20.29
2022-08-10T06:46:13.312Z,20.38
2022-08-10T06:47:10.720Z,20.44
2022-08-10T06:48:09.838Z,20.45
2022-08-10T06:49:13.005Z,20.51
2022-08-10T06:50:56.255Z,20.51
2022-08-10T06:51:57.021Z,20.57
2022-08-10T06:52:54.571Z,20.58
2022-08-10T06:53:55.281Z,20.63
2022-08-10T06:54:54.977Z,20.63
2022-08-10T06:55:56.849Z,20.68
2022-08-10T06:57:16.727Z,20.69
2022-08-10T06:58:12.192Z,20.73
2022-08-10T06:59:13.346Z,20.75
2022-08-10T07:00:22.218Z,20.78
2022-08-10T07:01:31.399Z,20.86
2022-08-10T07:02:32.770Z,20.89
2022-08-10T07:03:41.707Z,20.90
2022-08-10T07:04:53.742Z,20.93
2022-08-10T07:05:51.464Z,21.01
2022-08-10T07:06:49.035Z,21.07
2022-08-10T07:07:48.616Z,21.09
2022-08-10T07:08:45.784Z,21.14
2022-08-10T07:09:43.170Z,21.18
2022-08-10T07:10:41.321Z,21.23
2022-08-10T07:11:44.437Z,21.32
2022-08-10T07:12:45.002Z,21.37
2022-08-10T07:14:15.732Z,21.47
2022-08-10T07:14:58.898Z,21.56
2022-08-10T07:16:03.417Z,21.58
2022-08-10T07:17:03.231Z,21.64
2022-08-10T07:18:00.232Z,21.68
2022-08-10T07:19:08.282Z,21.75
2022-08-10T07:20:10.067Z,21.77
2022-08-10T07:21:07.725Z,21.85
2022-08-10T07:22:06.567Z,21.91
2022-08-10T07:23:57.202Z,21.95
2022-08-10T07:24:26.998Z,22.01
2022-08-10T07:25:25.630Z,22.04
2022-08-10T07:26:22.609Z,22.07
2022-08-10T07:27:19.641Z,22.09
2022-08-10T07:29:53.443Z,22.22
2022-08-10T07:30:54.969Z,22.28
2022-08-10T07:31:56.222Z,22.29
2022-08-10T07:35:16.017Z,22.52
2022-08-10T07:36:12.893Z,22.56
2022-08-10T07:40:02.330Z,22.67
2022-08-10T07:41:02.652Z,22.68
2022-08-10T07:41:59.898Z,22.77
2022-08-10T07:45:18.234Z,22.90
2022-08-10T07:46:15.425Z,22.94
2022-08-10T07:48:18.009Z,22.98
2022-08-10T07:51:25.386Z,23.16
2022-08-10T07:52:22.170Z,23.20
2022-08-10T07:54:29.294Z,23.25
2022-08-10T07:56:04.550Z,23.30
2022-08-10T07:56:50.526Z,23.34
2022-08-10T08:00:08.369Z,23.42
2022-08-10T08:01:05.551Z,23.42
2022-08-10T08:02:02.659Z,23.49
2022-08-10T08:03:01.311Z,23.56
2022-08-10T08:05:02.992Z,23.66
2022-08-10T08:06:03.259Z,23.68
2022-08-10T08:07:08.750Z,23.74
2022-08-10T08:08:05.906Z,23.76
2022-08-10T08:09:03.772Z,23.81
2022-08-10T08:10:00.936Z,23.84
2022-08-10T08:10:58.165Z,23.86
2022-08-10T08:11:55.059Z,23.89
2022-08-10T08:12:52.284Z,23.93
2022-08-10T08:14:55.342Z,23.99
2022-08-10T08:16:18.555Z,24.10
2022-08-10T08:17:10.251Z,24.10
2022-08-10T08:18:09.624Z,24.12
2022-08-10T08:19:37.494Z,24.15
2022-08-10T08:20:45.976Z,24.20
2022-08-10T08:24:04.546Z,24.24
2022-08-10T08:24:09.034Z,24.30
2022-08-10T08:24:32.748Z,24.34
2022-08-10T08:25:31.092Z,24.36
2022-08-10T08:26:27.835Z,24.39
2022-08-10T08:27:27.705Z,24.47
2022-08-10T08:29:31.736Z,24.63
2022-08-10T08:30:29.406Z,24.65
2022-08-10T08:32:32.091Z,24.76
2022-08-10T08:33:41.294Z,24.79
2022-08-10T08:34:41.078Z,24.84
2022-08-10T08:36:43.119Z,24.94
2022-08-10T08:38:29.977Z,24.99
2022-08-10T08:38:57.183Z,25.12
2022-08-10T08:39:54.088Z,25.16
2022-08-10T08:40:58.741Z,25.16
2022-08-10T08:42:07.151Z,25.20
2022-08-10T08:43:35.106Z,25.25
2022-08-10T08:44:38.749Z,25.29
2022-08-10T08:46:01.831Z,25.30
2022-08-10T08:48:19.433Z,25.44
2022-08-10T08:50:46.179Z,25.55
2022-08-10T08:52:07.391Z,25.61
2022-08-10T08:54:03.386Z,25.65
2022-08-10T08:56:07.191Z,25.73
2022-08-10T08:57:50.172Z,25.81
2022-08-10T08:58:50.704Z,25.85
2022-08-10T09:00:18.019Z,25.93
2022-08-10T09:01:17.918Z,25.99
2022-08-10T09:02:33.400Z,26.06
2022-08-10T09:03:48.950Z,26.11
2022-08-10T09:04:48.258Z,26.11
2022-08-10T09:06:12.454Z,26.18
2022-08-10T09:07:59.947Z,26.21
